createdAt,value
2022-12-04T00:07:36.544Z,1012.14
2022-12-04T00:22:52.386Z,1012.03
2022-12-04T00:38:09.402Z,1012.03
2022-12-04T00:53:25.328Z,1011.97
2022-12-04T01:08:42.319Z,1012.16
2022-12-04T01:23:56.265Z,1012.25
2022-12-04T01:39:13.297Z,1012.16
2022-12-04T01:54:29.239Z,1012
2022-12-04T02:09:45.200Z,1011.81
2022-12-04T02:25:02.125Z,1011.83
2022-12-04T02:40:18.157Z,1011.92
2022-12-04T02:55:35.076Z,1012.03
2022-12-04T03:10:52.086Z,1012.11
2022-12-04T03:26:09.016Z,1012
2022-12-04T03:41:25.048Z,1012.16
2022-12-04T03:56:40.956Z,1012.05
2022-12-04T04:11:56.957Z,1012.14
2022-12-04T04:27:13.940Z,1012.36
2022-12-04T04:42:29.893Z,1012.47
2022-12-04T04:57:46.886Z,1012.55
2022-12-04T05:13:03.824Z,1012.61
2022-12-04T05:28:20.804Z,1012.5
2022-12-04T05:43:36.740Z,1012.72
2022-12-04T05:58:52.746Z,1013.03
2022-12-04T06:14:08.681Z,1013
2022-12-04T06:29:25.644Z,1012.89
2022-12-04T06:44:42.628Z,1012.97
2022-12-04T06:59:59.597Z,1012.89
2022-12-04T07:15:15.551Z,1012.8
2022-12-04T07:30:32.524Z,1013.01
2022-12-04T07:45:48.684Z,1013.55
2022-12-04T08:01:04.543Z,1013.44
2022-12-04T08:16:20.498Z,1013.64
2022-12-04T08:31:38.471Z,1013.64
2022-12-04T08:46:55.368Z,1013.53
2022-12-04T09:02:12.329Z,1013.53
2022-12-04T09:17:28.381Z,1013.66
2022-12-04T09:32:45.276Z,1013.53
2022-12-04T09:48:01.265Z,1013.5
2022-12-04T10:03:17.396Z,1013.42
2022-12-04T10:18:34.208Z,1013.22
2022-12-04T10:33:52.186Z,1013.22
2022-12-04T10:34:32.041Z,1013.22
2022-12-04T10:49:09.168Z,1012.98
2022-12-04T11:04:26.139Z,1013.03
2022-12-04T11:19:43.120Z,1012.78
2022-12-04T11:35:01.047Z,1012.47
2022-12-04T11:50:18.041Z,1012.31
2022-12-04T12:05:34.017Z,1012.14
2022-12-04T12:20:49.981Z,1011.87
2022-12-04T12:36:06.898Z,1011.92
2022-12-04T12:51:30.723Z,1011.82
2022-12-04T13:06:39.890Z,1011.71
2022-12-04T13:21:56.853Z,1011.51
2022-12-04T13:37:13.820Z,1011.38
2022-12-04T13:52:30.747Z,1011.51
2022-12-04T14:07:46.811Z,1011.43
2022-12-04T14:23:02.708Z,1011.76
2022-12-04T14:38:19.702Z,1012.17
2022-12-04T14:53:35.633Z,1012.53
2022-12-04T15:08:51.636Z,1012.37
2022-12-04T15:24:08.587Z,1012.58
2022-12-04T15:39:26.553Z,1012.58
2022-12-04T15:54:43.508Z,1012.8
2022-12-04T16:10:02.780Z,1013.14
2022-12-04T16:25:15.447Z,1013.66
2022-12-04T16:40:32.458Z,1014.02
2022-12-04T16:55:48.384Z,1014.05
2022-12-04T16:56:33.262Z,1014.05
2022-12-04T17:11:02.411Z,1014.07
2022-12-04T17:26:19.345Z,1014.27
2022-12-04T17:41:36.333Z,1013.99
2022-12-04T17:56:57.473Z,1014.21
2022-12-04T18:12:08.233Z,1014.47
2022-12-04T18:27:24.237Z,1014.85
2022-12-04T18:42:41.191Z,1014.82
2022-12-04T18:57:58.196Z,1014.82
2022-12-04T19:13:15.110Z,1015.17
2022-12-04T19:28:45.519Z,1015.36
2022-12-04T19:43:49.052Z,1015.58
2022-12-04T19:59:05.070Z,1015.58
2022-12-04T20:14:20.978Z,1015.75
2022-12-04T20:29:37.972Z,1015.91
2022-12-04T20:44:53.961Z,1016.05
2022-12-04T21:00:09.894Z,1016.18
2022-12-04T21:15:26.866Z,1016.36
2022-12-04T21:30:44.891Z,1016.52
2022-12-04T21:46:07.447Z,1016.74
2022-12-04T22:01:17.914Z,1016.82
2022-12-04T22:16:38.308Z,1017.1
2022-12-04T22:31:50.821Z,1017.12
2022-12-04T22:47:06.797Z,1017.21
2022-12-04T23:02:23.636Z,1017.29
2022-12-04T23:17:40.665Z,1017.59
2022-12-04T23:32:58.582Z,1017.84
2022-12-04T23:48:14.578Z,1018.01
